sensor_id;sensor_type;location;lat;lon;timestamp;temperature;humidity
680;DHT22;322;48.846;9.230;2023-02-28T00:01:10;-1.10;99.90
680;DHT22;322;48.846;9.230;2023-02-28T00:03:37;-1.20;99.90
680;DHT22;322;48.846;9.230;2023-02-28T00:06:05;-1.20;99.90
680;DHT22;322;48.846;9.230;2023-02-28T00:08:32;-1.10;99.90
680;DHT22;322;48.846;9.230;2023-02-28T00:11:01;-1.20;99.90
680;DHT22;322;48.846;9.230;2023-02-28T00:13:30;-1.30;99.90
680;DHT22;322;48.846;9.230;2023-02-28T00:16:00;-1.30;99.90
680;DHT22;322;48.846;9.230;2023-02-28T00:18:27;-1.30;99.90
680;DHT22;322;48.846;9.230;2023-02-28T00:20:54;-1.30;99.90
680;DHT22;322;48.846;9.230;2023-02-28T00:23:21;-1.30;99.90
680;DHT22;322;48.846;9.230;2023-02-28T00:25:48;-1.30;99.90
680;DHT22;322;48.846;9.230;2023-02-28T00:28:15;-1.30;99.90
680;DHT22;322;48.846;9.230;2023-02-28T00:30:43;-1.30;99.90
680;DHT22;322;48.846;9.230;2023-02-28T00:33:10;-1.30;99.90
680;DHT22;322;48.846;9.230;2023-02-28T00:35:37;-1.30;99.90
680;DHT22;322;48.846;9.230;2023-02-28T00:38:04;-1.40;99.90
680;DHT22;322;48.846;9.230;2023-02-28T00:40:31;-1.30;99.90
680;DHT22;322;48.846;9.230;2023-02-28T00:42:58;-1.30;99.90
680;DHT22;322;48.846;9.230;2023-02-28T00:45:25;-1.30;99.90
680;DHT22;322;48.846;9.230;2023-02-28T00:47:53;-1.30;99.90
680;DHT22;322;48.846;9.230;2023-02-28T00:50:20;-1.30;99.90
680;DHT22;322;48.846;9.230;2023-02-28T00:52:47;-1.30;99.90
680;DHT22;322;48.846;9.230;2023-02-28T00:55:14;-1.30;99.90
680;DHT22;322;48.846;9.230;2023-02-28T00:57:41;-1.30;99.90
680;DHT22;322;48.846;9.230;2023-02-28T01:00:09;-1.30;99.90
680;DHT22;322;48.846;9.230;2023-02-28T01:02:36;-1.40;99.90
680;DHT22;322;48.846;9.230;2023-02-28T01:05:05;-1.40;99.90
680;DHT22;322;48.846;9.230;2023-02-28T01:07:32;-1.30;99.90
680;DHT22;322;48.846;9.230;2023-02-28T01:09:59;-1.40;99.90
680;DHT22;322;48.846;9.230;2023-02-28T01:12:25;-1.40;99.90
680;DHT22;322;48.846;9.230;2023-02-28T01:14:52;-1.40;99.90
680;DHT22;322;48.846;9.230;2023-02-28T01:17:19;-1.30;99.90
680;DHT22;322;48.846;9.230;2023-02-28T01:19:48;-1.30;99.90
680;DHT22;322;48.846;9.230;2023-02-28T01:22:16;-1.30;99.90
680;DHT22;322;48.846;9.230;2023-02-28T01:24:43;-1.40;99.90
680;DHT22;322;48.846;9.230;2023-02-28T01:27:10;-1.30;99.90
680;DHT22;322;48.846;9.230;2023-02-28T01:29:36;-1.30;99.90
680;DHT22;322;48.846;9.230;2023-02-28T01:32:03;-1.40;99.90
680;DHT22;322;48.846;9.230;2023-02-28T01:34:30;-1.50;99.90
680;DHT22;322;48.846;9.230;2023-02-28T01:36:57;-1.50;99.90
680;DHT22;322;48.846;9.230;2023-02-28T01:39:26;-1.50;99.90
680;DHT22;322;48.846;9.230;2023-02-28T01:41:53;-1.60;99.90
680;DHT22;322;48.846;9.230;2023-02-28T01:44:58;-1.60;99.90
680;DHT22;322;48.846;9.230;2023-02-28T01:47:28;-1.70;99.90
680;DHT22;322;48.846;9.230;2023-02-28T01:49:55;-1.70;99.90
680;DHT22;322;48.846;9.230;2023-02-28T01:52:23;-1.70;99.90
680;DHT22;322;48.846;9.230;2023-02-28T01:54:54;-1.80;99.90
680;DHT22;322;48.846;9.230;2023-02-28T01:57:24;-1.80;99.90
680;DHT22;322;48.846;9.230;2023-02-28T01:59:57;-1.90;99.90
680;DHT22;322;48.846;9.230;2023-02-28T02:02:25;-1.90;99.90
680;DHT22;322;48.846;9.230;2023-02-28T02:04:55;-1.80;99.90
680;DHT22;322;48.846;9.230;2023-02-28T02:07:23;-1.70;99.90
680;DHT22;322;48.846;9.230;2023-02-28T02:10:00;-1.60;99.90
680;DHT22;322;48.846;9.230;2023-02-28T02:12:36;-1.60;99.90
680;DHT22;322;48.846;9.230;2023-02-28T02:15:12;-1.60;99.90
680;DHT22;322;48.846;9.230;2023-02-28T02:17:44;-1.60;99.90
680;DHT22;322;48.846;9.230;2023-02-28T02:23:44;-1.60;99.90
680;DHT22;322;48.846;9.230;2023-02-28T02:33:06;-1.40;99.90
680;DHT22;322;48.846;9.230;2023-02-28T02:35:52;-1.40;99.90
680;DHT22;322;48.846;9.230;2023-02-28T02:38:31;-1.40;99.90
680;DHT22;322;48.846;9.230;2023-02-28T02:41:05;-1.40;99.90
680;DHT22;322;48.846;9.230;2023-02-28T02:43:39;-1.30;99.90
680;DHT22;322;48.846;9.230;2023-02-28T02:46:12;-1.20;99.90
680;DHT22;322;48.846;9.230;2023-02-28T02:48:47;-1.30;99.90
680;DHT22;322;48.846;9.230;2023-02-28T02:51:17;-1.30;99.90
680;DHT22;322;48.846;9.230;2023-02-28T02:53:49;-1.20;99.90
680;DHT22;322;48.846;9.230;2023-02-28T02:56:22;-1.20;99.90
680;DHT22;322;48.846;9.230;2023-02-28T02:58:51;-1.20;99.90
680;DHT22;322;48.846;9.230;2023-02-28T03:01:21;-1.10;99.90
680;DHT22;322;48.846;9.230;2023-02-28T03:03:55;-1.10;99.90
680;DHT22;322;48.846;9.230;2023-02-28T03:06:23;-1.20;99.90
680;DHT22;322;48.846;9.230;2023-02-28T03:08:50;-1.10;99.90
680;DHT22;322;48.846;9.230;2023-02-28T03:11:17;-1.10;99.90
680;DHT22;322;48.846;9.230;2023-02-28T03:14:11;-1.10;99.90
680;DHT22;322;48.846;9.230;2023-02-28T03:16:54;-1.00;99.90
680;DHT22;322;48.846;9.230;2023-02-28T03:19:39;-1.00;99.90
680;DHT22;322;48.846;9.230;2023-02-28T03:22:17;-0.90;99.90
680;DHT22;322;48.846;9.230;2023-02-28T03:24:50;-0.90;99.90
680;DHT22;322;48.846;9.230;2023-02-28T03:27:23;-0.80;99.90
680;DHT22;322;48.846;9.230;2023-02-28T03:29:58;-0.80;99.90
680;DHT22;322;48.846;9.230;2023-02-28T03:32:32;-0.80;99.90
680;DHT22;322;48.846;9.230;2023-02-28T03:35:04;-0.80;99.90
680;DHT22;322;48.846;9.230;2023-02-28T03:37:38;-0.70;99.90
680;DHT22;322;48.846;9.230;2023-02-28T03:40:10;-0.70;99.90
680;DHT22;322;48.846;9.230;2023-02-28T03:42:42;-0.60;99.90
680;DHT22;322;48.846;9.230;2023-02-28T03:45:12;-0.70;99.90
680;DHT22;322;48.846;9.230;2023-02-28T03:47:46;-0.70;99.90
680;DHT22;322;48.846;9.230;2023-02-28T03:50:18;-0.70;99.90
680;DHT22;322;48.846;9.230;2023-02-28T03:52:50;-0.70;99.90
680;DHT22;322;48.846;9.230;2023-02-28T03:55:19;-0.60;99.90
680;DHT22;322;48.846;9.230;2023-02-28T03:57:56;-0.60;99.90
680;DHT22;322;48.846;9.230;2023-02-28T04:00:27;-0.60;99.90
680;DHT22;322;48.846;9.230;2023-02-28T04:02:55;-0.60;99.90
680;DHT22;322;48.846;9.230;2023-02-28T04:05:22;-0.60;99.90
680;DHT22;322;48.846;9.230;2023-02-28T04:07:50;-0.50;99.90
680;DHT22;322;48.846;9.230;2023-02-28T04:10:18;-0.60;99.90
680;DHT22;322;48.846;9.230;2023-02-28T04:12:45;-0.50;99.90
680;DHT22;322;48.846;9.230;2023-02-28T04:15:12;-0.50;99.90
680;DHT22;322;48.846;9.230;2023-02-28T04:17:38;-0.50;99.90
680;DHT22;322;48.846;9.230;2023-02-28T04:20:06;-0.40;99.90
680;DHT22;322;48.846;9.230;2023-02-28T04:22:35;-0.40;99.90
680;DHT22;322;48.846;9.230;2023-02-28T04:25:05;-0.40;99.90
680;DHT22;322;48.846;9.230;2023-02-28T04:27:32;-0.40;99.90
680;DHT22;322;48.846;9.230;2023-02-28T04:29:59;-0.40;99.90
680;DHT22;322;48.846;9.230;2023-02-28T04:32:26;-0.40;99.90
680;DHT22;322;48.846;9.230;2023-02-28T04:34:53;-0.40;99.90
680;DHT22;322;48.846;9.230;2023-02-28T04:37:20;-0.30;99.90
680;DHT22;322;48.846;9.230;2023-02-28T04:39:53;-0.30;99.90
680;DHT22;322;48.846;9.230;2023-02-28T04:42:21;-0.30;99.90
680;DHT22;322;48.846;9.230;2023-02-28T04:44:48;-0.40;99.90
680;DHT22;322;48.846;9.230;2023-02-28T04:47:15;-0.40;99.90
680;DHT22;322;48.846;9.230;2023-02-28T04:49:41;-0.30;99.90
680;DHT22;322;48.846;9.230;2023-02-28T04:52:08;-0.30;99.90
680;DHT22;322;48.846;9.230;2023-02-28T04:54:35;-0.30;99.90
680;DHT22;322;48.846;9.230;2023-02-28T04:57:04;-0.30;99.90
680;DHT22;322;48.846;9.230;2023-02-28T04:59:32;-0.20;99.90
680;DHT22;322;48.846;9.230;2023-02-28T05:01:59;-0.20;99.90
680;DHT22;322;48.846;9.230;2023-02-28T05:04:32;-0.20;99.90
680;DHT22;322;48.846;9.230;2023-02-28T05:07:00;-0.20;99.90
680;DHT22;322;48.846;9.230;2023-02-28T05:09:27;-0.20;99.90
680;DHT22;322;48.846;9.230;2023-02-28T05:11:54;-0.20;99.90
680;DHT22;322;48.846;9.230;2023-02-28T05:14:21;-0.10;99.90
680;DHT22;322;48.846;9.230;2023-02-28T05:16:49;-0.20;99.90
680;DHT22;322;48.846;9.230;2023-02-28T05:19:16;-0.20;99.90
680;DHT22;322;48.846;9.230;2023-02-28T05:21:49;-0.20;99.90
680;DHT22;322;48.846;9.230;2023-02-28T05:24:17;-0.20;99.90
680;DHT22;322;48.846;9.230;2023-02-28T05:26:49;-0.10;99.90
680;DHT22;322;48.846;9.230;2023-02-28T05:29:16;-0.20;99.90
680;DHT22;322;48.846;9.230;2023-02-28T05:31:43;-0.20;99.90
680;DHT22;322;48.846;9.230;2023-02-28T05:34:11;-0.10;99.90
680;DHT22;322;48.846;9.230;2023-02-28T05:36:38;-0.20;99.90
680;DHT22;322;48.846;9.230;2023-02-28T05:39:05;-0.10;99.90
680;DHT22;322;48.846;9.230;2023-02-28T05:41:38;-0.10;99.90
680;DHT22;322;48.846;9.230;2023-02-28T05:44:05;-0.10;99.90
680;DHT22;322;48.846;9.230;2023-02-28T05:46:32;-0.10;99.90
680;DHT22;322;48.846;9.230;2023-02-28T05:48:59;-0.10;99.90
680;DHT22;322;48.846;9.230;2023-02-28T05:51:27;-0.10;99.90
680;DHT22;322;48.846;9.230;2023-02-28T05:53:54;-0.10;99.90
680;DHT22;322;48.846;9.230;2023-02-28T05:56:22;-0.10;99.90
680;DHT22;322;48.846;9.230;2023-02-28T05:58:49;-0.20;99.90
680;DHT22;322;48.846;9.230;2023-02-28T06:01:35;-0.10;99.90
680;DHT22;322;48.846;9.230;2023-02-28T06:04:05;0.00;99.90
680;DHT22;322;48.846;9.230;2023-02-28T06:06:33;0.00;99.90
680;DHT22;322;48.846;9.230;2023-02-28T06:09:01;0.00;99.90
680;DHT22;322;48.846;9.230;2023-02-28T06:11:28;0.00;99.90
680;DHT22;322;48.846;9.230;2023-02-28T06:13:57;0.00;99.90
680;DHT22;322;48.846;9.230;2023-02-28T06:16:25;0.00;99.90
680;DHT22;322;48.846;9.230;2023-02-28T06:18:52;0.00;99.90
680;DHT22;322;48.846;9.230;2023-02-28T06:21:21;0.00;99.90
680;DHT22;322;48.846;9.230;2023-02-28T06:23:49;0.00;99.90
680;DHT22;322;48.846;9.230;2023-02-28T06:26:16;0.00;99.90
680;DHT22;322;48.846;9.230;2023-02-28T06:28:43;0.00;99.90
680;DHT22;322;48.846;9.230;2023-02-28T06:31:11;0.00;99.90
680;DHT22;322;48.846;9.230;2023-02-28T06:33:39;0.10;99.90
680;DHT22;322;48.846;9.230;2023-02-28T06:36:07;0.10;99.90
680;DHT22;322;48.846;9.230;2023-02-28T06:38:34;0.10;99.90
680;DHT22;322;48.846;9.230;2023-02-28T06:41:03;0.10;99.90
680;DHT22;322;48.846;9.230;2023-02-28T06:43:33;0.10;99.90
680;DHT22;322;48.846;9.230;2023-02-28T06:46:02;0.10;99.90
680;DHT22;322;48.846;9.230;2023-02-28T06:48:29;0.20;99.90
680;DHT22;322;48.846;9.230;2023-02-28T06:51:02;0.20;99.90
680;DHT22;322;48.846;9.230;2023-02-28T06:53:29;0.20;99.90
680;DHT22;322;48.846;9.230;2023-02-28T06:55:56;0.30;99.90
680;DHT22;322;48.846;9.230;2023-02-28T06:58:24;0.30;99.90
680;DHT22;322;48.846;9.230;2023-02-28T07:00:52;0.40;99.90
680;DHT22;322;48.846;9.230;2023-02-28T07:03:20;0.30;99.90
680;DHT22;322;48.846;9.230;2023-02-28T07:05:47;0.30;99.90
680;DHT22;322;48.846;9.230;2023-02-28T07:08:14;0.30;99.90
680;DHT22;322;48.846;9.230;2023-02-28T07:10:41;0.30;99.90
680;DHT22;322;48.846;9.230;2023-02-28T07:13:08;0.30;99.90
680;DHT22;322;48.846;9.230;2023-02-28T07:15:37;0.40;99.90
680;DHT22;322;48.846;9.230;2023-02-28T07:18:04;0.40;99.90
680;DHT22;322;48.846;9.230;2023-02-28T07:20:31;0.50;99.90
680;DHT22;322;48.846;9.230;2023-02-28T07:22:58;0.50;99.90
680;DHT22;322;48.846;9.230;2023-02-28T07:25:26;0.60;99.90
680;DHT22;322;48.846;9.230;2023-02-28T07:27:53;0.50;99.90
680;DHT22;322;48.846;9.230;2023-02-28T07:30:20;0.50;99.90
680;DHT22;322;48.846;9.230;2023-02-28T07:32:48;0.40;99.90
680;DHT22;322;48.846;9.230;2023-02-28T07:35:15;0.40;99.90
680;DHT22;322;48.846;9.230;2023-02-28T07:37:42;0.50;99.90
680;DHT22;322;48.846;9.230;2023-02-28T07:40:11;0.60;99.90
680;DHT22;322;48.846;9.230;2023-02-28T07:42:38;0.60;99.90
680;DHT22;322;48.846;9.230;2023-02-28T07:45:07;0.60;99.90
680;DHT22;322;48.846;9.230;2023-02-28T07:47:34;0.70;99.90
680;DHT22;322;48.846;9.230;2023-02-28T07:50:02;0.70;99.90
680;DHT22;322;48.846;9.230;2023-02-28T07:52:29;0.70;99.90
680;DHT22;322;48.846;9.230;2023-02-28T07:54:56;0.70;99.90
680;DHT22;322;48.846;9.230;2023-02-28T07:57:23;0.50;99.90
680;DHT22;322;48.846;9.230;2023-02-28T07:59:50;0.50;99.90
680;DHT22;322;48.846;9.230;2023-02-28T08:02:18;0.60;99.90
680;DHT22;322;48.846;9.230;2023-02-28T08:04:45;0.70;99.90
680;DHT22;322;48.846;9.230;2023-02-28T08:07:14;0.80;99.90
680;DHT22;322;48.846;9.230;2023-02-28T08:09:42;0.80;99.90
680;DHT22;322;48.846;9.230;2023-02-28T08:12:09;0.90;99.90
680;DHT22;322;48.846;9.230;2023-02-28T08:14:37;0.90;99.90
680;DHT22;322;48.846;9.230;2023-02-28T08:17:05;0.90;99.90
680;DHT22;322;48.846;9.230;2023-02-28T08:19:32;1.00;99.90
680;DHT22;322;48.846;9.230;2023-02-28T08:21:58;1.00;99.90
680;DHT22;322;48.846;9.230;2023-02-28T08:24:27;1.10;99.90
680;DHT22;322;48.846;9.230;2023-02-28T08:26:53;1.10;99.90
680;DHT22;322;48.846;9.230;2023-02-28T08:29:20;1.20;99.90
680;DHT22;322;48.846;9.230;2023-02-28T08:31:47;1.10;99.90
680;DHT22;322;48.846;9.230;2023-02-28T08:34:15;1.10;99.90
680;DHT22;322;48.846;9.230;2023-02-28T08:36:42;1.20;99.90
680;DHT22;322;48.846;9.230;2023-02-28T08:39:10;1.20;99.90
680;DHT22;322;48.846;9.230;2023-02-28T08:41:38;1.20;99.90
680;DHT22;322;48.846;9.230;2023-02-28T08:44:05;1.30;99.90
680;DHT22;322;48.846;9.230;2023-02-28T08:46:32;1.60;99.90
680;DHT22;322;48.846;9.230;2023-02-28T08:48:58;1.50;99.90
680;DHT22;322;48.846;9.230;2023-02-28T08:51:28;1.50;99.90
680;DHT22;322;48.846;9.230;2023-02-28T08:53:58;1.60;99.90
680;DHT22;322;48.846;9.230;2023-02-28T08:56:25;1.60;99.90
680;DHT22;322;48.846;9.230;2023-02-28T08:58:56;1.70;99.90
680;DHT22;322;48.846;9.230;2023-02-28T09:01:24;1.80;99.90
680;DHT22;322;48.846;9.230;2023-02-28T09:03:52;1.70;99.90
680;DHT22;322;48.846;9.230;2023-02-28T09:06:20;1.70;99.90
680;DHT22;322;48.846;9.230;2023-02-28T09:08:48;1.80;99.90
680;DHT22;322;48.846;9.230;2023-02-28T09:11:15;1.90;99.90
680;DHT22;322;48.846;9.230;2023-02-28T09:13:42;2.10;99.90
680;DHT22;322;48.846;9.230;2023-02-28T09:16:13;2.30;99.90
680;DHT22;322;48.846;9.230;2023-02-28T09:18:40;2.70;99.90
680;DHT22;322;48.846;9.230;2023-02-28T09:21:09;2.70;99.90
680;DHT22;322;48.846;9.230;2023-02-28T09:23:37;2.80;99.90
680;DHT22;322;48.846;9.230;2023-02-28T09:26:04;3.00;99.90
680;DHT22;322;48.846;9.230;2023-02-28T09:28:31;3.10;99.90
680;DHT22;322;48.846;9.230;2023-02-28T09:30:58;3.30;99.90
680;DHT22;322;48.846;9.230;2023-02-28T09:33:26;3.40;99.90
680;DHT22;322;48.846;9.230;2023-02-28T09:35:58;3.60;99.90
680;DHT22;322;48.846;9.230;2023-02-28T09:38:25;3.50;99.90
680;DHT22;322;48.846;9.230;2023-02-28T09:40:55;3.50;99.90
680;DHT22;322;48.846;9.230;2023-02-28T09:43:26;3.60;99.90
680;DHT22;322;48.846;9.230;2023-02-28T09:45:59;3.60;99.90
680;DHT22;322;48.846;9.230;2023-02-28T09:48:33;3.70;99.90
680;DHT22;322;48.846;9.230;2023-02-28T09:51:04;3.60;99.90
680;DHT22;322;48.846;9.230;2023-02-28T09:53:33;3.80;99.90
680;DHT22;322;48.846;9.230;2023-02-28T09:56:04;3.80;99.90
680;DHT22;322;48.846;9.230;2023-02-28T09:58:37;4.00;99.90
680;DHT22;322;48.846;9.230;2023-02-28T10:01:10;3.90;99.90
680;DHT22;322;48.846;9.230;2023-02-28T10:03:43;4.00;99.90
680;DHT22;322;48.846;9.230;2023-02-28T10:06:16;4.10;99.90
680;DHT22;322;48.846;9.230;2023-02-28T10:08:51;4.30;99.90
680;DHT22;322;48.846;9.230;2023-02-28T10:11:19;4.60;99.90
680;DHT22;322;48.846;9.230;2023-02-28T10:13:52;4.70;99.90
680;DHT22;322;48.846;9.230;2023-02-28T10:16:25;4.80;99.90
680;DHT22;322;48.846;9.230;2023-02-28T10:18:59;4.90;99.90
680;DHT22;322;48.846;9.230;2023-02-28T10:21:31;5.20;99.90
680;DHT22;322;48.846;9.230;2023-02-28T10:24:04;5.30;99.90
680;DHT22;322;48.846;9.230;2023-02-28T10:26:32;5.30;99.90
680;DHT22;322;48.846;9.230;2023-02-28T10:28:59;5.30;99.90
680;DHT22;322;48.846;9.230;2023-02-28T10:31:28;5.30;99.90
680;DHT22;322;48.846;9.230;2023-02-28T10:33:56;5.40;99.90
680;DHT22;322;48.846;9.230;2023-02-28T10:36:23;5.40;99.90
680;DHT22;322;48.846;9.230;2023-02-28T10:38:50;5.30;99.90
680;DHT22;322;48.846;9.230;2023-02-28T10:41:27;5.40;99.90
680;DHT22;322;48.846;9.230;2023-02-28T10:44:14;5.60;99.90
680;DHT22;322;48.846;9.230;2023-02-28T10:46:41;5.70;99.90
680;DHT22;322;48.846;9.230;2023-02-28T10:49:17;6.00;99.90
680;DHT22;322;48.846;9.230;2023-02-28T10:51:46;6.40;99.10
680;DHT22;322;48.846;9.230;2023-02-28T10:54:16;6.70;99.60
680;DHT22;322;48.846;9.230;2023-02-28T10:56:44;7.00;98.60
680;DHT22;322;48.846;9.230;2023-02-28T10:59:29;6.90;97.80
680;DHT22;322;48.846;9.230;2023-02-28T11:01:56;7.00;97.80
680;DHT22;322;48.846;9.230;2023-02-28T11:04:35;6.80;97.40
680;DHT22;322;48.846;9.230;2023-02-28T11:07:06;6.60;96.90
680;DHT22;322;48.846;9.230;2023-02-28T11:09:45;6.20;97.70
680;DHT22;322;48.846;9.230;2023-02-28T11:12:20;5.90;97.70
680;DHT22;322;48.846;9.230;2023-02-28T11:14:49;6.10;98.60
680;DHT22;322;48.846;9.230;2023-02-28T11:17:20;6.10;98.20
680;DHT22;322;48.846;9.230;2023-02-28T11:19:52;6.10;97.90
680;DHT22;322;48.846;9.230;2023-02-28T11:22:22;6.20;98.20
680;DHT22;322;48.846;9.230;2023-02-28T11:24:51;6.40;98.30
680;DHT22;322;48.846;9.230;2023-02-28T11:27:43;6.70;97.20
680;DHT22;322;48.846;9.230;2023-02-28T11:30:34;6.90;96.40
680;DHT22;322;48.846;9.230;2023-02-28T11:33:23;6.50;97.00
680;DHT22;322;48.846;9.230;2023-02-28T11:35:52;6.50;97.10
680;DHT22;322;48.846;9.230;2023-02-28T11:38:22;6.50;97.60
680;DHT22;322;48.846;9.230;2023-02-28T11:41:10;6.80;97.30
680;DHT22;322;48.846;9.230;2023-02-28T11:43:57;7.00;96.50
680;DHT22;322;48.846;9.230;2023-02-28T11:46:32;7.20;96.50
680;DHT22;322;48.846;9.230;2023-02-28T11:49:13;7.30;95.80
680;DHT22;322;48.846;9.230;2023-02-28T11:51:47;7.00;95.40
680;DHT22;322;48.846;9.230;2023-02-28T11:54:35;7.00;96.70
680;DHT22;322;48.846;9.230;2023-02-28T11:57:18;7.00;95.90
680;DHT22;322;48.846;9.230;2023-02-28T11:59:58;7.60;95.90
680;DHT22;322;48.846;9.230;2023-02-28T12:02:29;8.00;94.70
680;DHT22;322;48.846;9.230;2023-02-28T12:05:10;8.40;94.80
680;DHT22;322;48.846;9.230;2023-02-28T12:07:48;9.30;93.20
680;DHT22;322;48.846;9.230;2023-02-28T12:10:21;10.40;90.50
680;DHT22;322;48.846;9.230;2023-02-28T12:12:57;11.10;88.40
680;DHT22;322;48.846;9.230;2023-02-28T12:15:38;11.60;84.40
680;DHT22;322;48.846;9.230;2023-02-28T12:18:17;11.80;82.90
680;DHT22;322;48.846;9.230;2023-02-28T12:20:55;11.90;81.00
680;DHT22;322;48.846;9.230;2023-02-28T12:23:50;11.70;81.70
680;DHT22;322;48.846;9.230;2023-02-28T12:26:29;11.10;82.70
680;DHT22;322;48.846;9.230;2023-02-28T12:29:02;11.10;83.00
680;DHT22;322;48.846;9.230;2023-02-28T12:31:34;10.80;82.30
680;DHT22;322;48.846;9.230;2023-02-28T12:34:05;11.20;83.00
680;DHT22;322;48.846;9.230;2023-02-28T12:36:34;12.40;80.60
680;DHT22;322;48.846;9.230;2023-02-28T12:39:08;12.50;77.50
680;DHT22;322;48.846;9.230;2023-02-28T12:41:40;12.60;78.10
680;DHT22;322;48.846;9.230;2023-02-28T12:44:10;12.90;76.60
680;DHT22;322;48.846;9.230;2023-02-28T12:46:41;13.30;76.30
680;DHT22;322;48.846;9.230;2023-02-28T12:49:12;13.60;73.60
680;DHT22;322;48.846;9.230;2023-02-28T12:51:40;13.00;73.80
680;DHT22;322;48.846;9.230;2023-02-28T12:54:14;13.20;74.20
680;DHT22;322;48.846;9.230;2023-02-28T12:56:48;13.40;73.40
680;DHT22;322;48.846;9.230;2023-02-28T12:59:23;12.70;73.00
680;DHT22;322;48.846;9.230;2023-02-28T13:02:00;11.20;76.60
680;DHT22;322;48.846;9.230;2023-02-28T13:07:49;9.80;82.10
680;DHT22;322;48.846;9.230;2023-02-28T13:10:21;9.30;84.00
680;DHT22;322;48.846;9.230;2023-02-28T13:12:49;9.00;87.80
680;DHT22;322;48.846;9.230;2023-02-28T13:15:20;8.70;86.50
680;DHT22;322;48.846;9.230;2023-02-28T13:17:51;8.50;85.50
680;DHT22;322;48.846;9.230;2023-02-28T13:20:20;8.30;88.50
680;DHT22;322;48.846;9.230;2023-02-28T13:22:48;8.20;89.20
680;DHT22;322;48.846;9.230;2023-02-28T13:34:41;8.40;90.30
680;DHT22;322;48.846;9.230;2023-02-28T13:37:34;8.30;89.50
680;DHT22;322;48.846;9.230;2023-02-28T13:40:28;8.30;90.00
680;DHT22;322;48.846;9.230;2023-02-28T13:42:55;7.90;87.50
680;DHT22;322;48.846;9.230;2023-02-28T13:45:26;7.70;87.90
680;DHT22;322;48.846;9.230;2023-02-28T13:47:59;7.50;90.40
680;DHT22;322;48.846;9.230;2023-02-28T13:50:33;7.60;90.70
680;DHT22;322;48.846;9.230;2023-02-28T13:53:40;7.70;90.00
680;DHT22;322;48.846;9.230;2023-02-28T13:56:36;7.50;90.00
680;DHT22;322;48.846;9.230;2023-02-28T13:59:19;7.30;90.30
680;DHT22;322;48.846;9.230;2023-02-28T14:02:11;7.20;90.80
680;DHT22;322;48.846;9.230;2023-02-28T14:05:04;7.00;90.90
680;DHT22;322;48.846;9.230;2023-02-28T14:07:38;6.80;91.40
680;DHT22;322;48.846;9.230;2023-02-28T14:10:16;7.10;91.70
680;DHT22;322;48.846;9.230;2023-02-28T14:13:01;7.30;91.60
680;DHT22;322;48.846;9.230;2023-02-28T14:15:41;7.20;90.30
680;DHT22;322;48.846;9.230;2023-02-28T14:18:23;7.20;91.70
680;DHT22;322;48.846;9.230;2023-02-28T14:20:54;7.00;90.60
680;DHT22;322;48.846;9.230;2023-02-28T14:23:40;6.80;90.90
680;DHT22;322;48.846;9.230;2023-02-28T14:26:19;6.90;91.50
680;DHT22;322;48.846;9.230;2023-02-28T14:29:02;7.00;92.40
680;DHT22;322;48.846;9.230;2023-02-28T14:31:37;7.10;91.80
680;DHT22;322;48.846;9.230;2023-02-28T14:34:22;7.10;91.00
680;DHT22;322;48.846;9.230;2023-02-28T14:36:53;7.10;92.00
680;DHT22;322;48.846;9.230;2023-02-28T14:39:22;7.20;91.80
680;DHT22;322;48.846;9.230;2023-02-28T14:41:50;7.30;91.90
680;DHT22;322;48.846;9.230;2023-02-28T14:44:19;7.20;92.10
680;DHT22;322;48.846;9.230;2023-02-28T14:46:49;7.20;91.70
680;DHT22;322;48.846;9.230;2023-02-28T14:49:27;7.20;90.50
680;DHT22;322;48.846;9.230;2023-02-28T14:52:03;7.10;91.70
680;DHT22;322;48.846;9.230;2023-02-28T14:54:33;6.90;91.50
680;DHT22;322;48.846;9.230;2023-02-28T14:57:00;7.00;91.90
680;DHT22;322;48.846;9.230;2023-02-28T14:59:29;7.00;92.20
680;DHT22;322;48.846;9.230;2023-02-28T15:02:17;7.10;92.00
680;DHT22;322;48.846;9.230;2023-02-28T15:04:52;7.20;91.20
680;DHT22;322;48.846;9.230;2023-02-28T15:07:20;7.30;92.20
680;DHT22;322;48.846;9.230;2023-02-28T15:10:13;7.30;92.10
680;DHT22;322;48.846;9.230;2023-02-28T15:12:45;7.20;91.20
680;DHT22;322;48.846;9.230;2023-02-28T15:15:15;7.00;91.60
680;DHT22;322;48.846;9.230;2023-02-28T15:17:46;6.80;91.60
680;DHT22;322;48.846;9.230;2023-02-28T15:20:16;6.80;92.90
680;DHT22;322;48.846;9.230;2023-02-28T15:22:45;7.00;92.70
680;DHT22;322;48.846;9.230;2023-02-28T15:25:18;7.10;92.70
680;DHT22;322;48.846;9.230;2023-02-28T15:27:47;7.30;92.50
680;DHT22;322;48.846;9.230;2023-02-28T15:30:18;7.50;92.20
680;DHT22;322;48.846;9.230;2023-02-28T15:33:03;7.70;92.10
680;DHT22;322;48.846;9.230;2023-02-28T15:35:32;7.70;91.80
680;DHT22;322;48.846;9.230;2023-02-28T15:38:01;7.60;91.30
680;DHT22;322;48.846;9.230;2023-02-28T15:40:31;7.30;92.30
680;DHT22;322;48.846;9.230;2023-02-28T15:43:04;7.00;91.80
680;DHT22;322;48.846;9.230;2023-02-28T15:45:36;6.70;92.70
680;DHT22;322;48.846;9.230;2023-02-28T15:48:04;6.70;93.40
680;DHT22;322;48.846;9.230;2023-02-28T15:50:31;6.60;93.30
680;DHT22;322;48.846;9.230;2023-02-28T15:53:00;6.60;93.60
680;DHT22;322;48.846;9.230;2023-02-28T15:55:30;6.50;94.00
680;DHT22;322;48.846;9.230;2023-02-28T15:58:00;6.50;94.30
680;DHT22;322;48.846;9.230;2023-02-28T16:00:29;6.40;94.30
680;DHT22;322;48.846;9.230;2023-02-28T16:02:58;6.50;94.30
680;DHT22;322;48.846;9.230;2023-02-28T16:05:26;6.40;93.80
680;DHT22;322;48.846;9.230;2023-02-28T16:07:57;6.40;93.90
680;DHT22;322;48.846;9.230;2023-02-28T16:10:26;6.40;94.00
680;DHT22;322;48.846;9.230;2023-02-28T16:12:55;6.20;94.30
680;DHT22;322;48.846;9.230;2023-02-28T16:15:24;6.20;94.10
680;DHT22;322;48.846;9.230;2023-02-28T16:17:53;6.10;94.40
680;DHT22;322;48.846;9.230;2023-02-28T16:20:21;6.00;94.90
680;DHT22;322;48.846;9.230;2023-02-28T16:22:49;5.90;95.10
680;DHT22;322;48.846;9.230;2023-02-28T16:25:18;5.80;95.00
680;DHT22;322;48.846;9.230;2023-02-28T16:27:46;5.70;95.10
680;DHT22;322;48.846;9.230;2023-02-28T16:30:20;5.60;95.30
680;DHT22;322;48.846;9.230;2023-02-28T16:32:47;5.50;95.50
680;DHT22;322;48.846;9.230;2023-02-28T16:35:15;5.50;95.90
680;DHT22;322;48.846;9.230;2023-02-28T16:37:43;5.30;96.10
680;DHT22;322;48.846;9.230;2023-02-28T16:40:14;5.20;96.60
680;DHT22;322;48.846;9.230;2023-02-28T16:42:42;5.10;97.30
680;DHT22;322;48.846;9.230;2023-02-28T16:45:17;4.90;97.50
680;DHT22;322;48.846;9.230;2023-02-28T16:47:45;4.80;97.90
680;DHT22;322;48.846;9.230;2023-02-28T16:50:15;4.70;98.30
680;DHT22;322;48.846;9.230;2023-02-28T16:52:42;4.50;98.70
680;DHT22;322;48.846;9.230;2023-02-28T16:55:09;4.50;98.90
680;DHT22;322;48.846;9.230;2023-02-28T16:57:36;4.40;99.10
680;DHT22;322;48.846;9.230;2023-02-28T17:00:05;4.20;99.30
680;DHT22;322;48.846;9.230;2023-02-28T17:02:35;4.00;99.60
680;DHT22;322;48.846;9.230;2023-02-28T17:05:02;4.00;99.90
680;DHT22;322;48.846;9.230;2023-02-28T17:07:28;3.80;99.90
680;DHT22;322;48.846;9.230;2023-02-28T17:09:55;3.70;99.90
680;DHT22;322;48.846;9.230;2023-02-28T17:12:22;3.60;99.90
680;DHT22;322;48.846;9.230;2023-02-28T17:14:49;3.60;99.90
680;DHT22;322;48.846;9.230;2023-02-28T17:17:18;3.60;99.90
680;DHT22;322;48.846;9.230;2023-02-28T17:19:47;3.50;99.90
680;DHT22;322;48.846;9.230;2023-02-28T17:22:14;3.50;99.90
680;DHT22;322;48.846;9.230;2023-02-28T17:24:41;3.40;99.90
680;DHT22;322;48.846;9.230;2023-02-28T17:27:11;3.30;99.90
680;DHT22;322;48.846;9.230;2023-02-28T17:29:38;3.30;99.90
680;DHT22;322;48.846;9.230;2023-02-28T17:32:05;3.20;99.90